Time;durP1;ratioP1;P1;durP2;ratioP2;P2;SDS_P1;SDS_P2;PMS_P1;PMS_P2;Temp;Humidity;BMP_temperature;BMP_pressure;BME280_temperature;BME280_humidity;BME280_pressure;Samples;Min_cycle;Max_cycle;Signal;HPM_P1;HPM_P2
2022/02/22 00:02:34;;;;;;;19.93;5.70;;;;;;;;;;6215242;28;20312;-72
2022/02/22 00:05:55;;;;;;;23.93;6.40;;;;;;;;;;6216611;28;20245;-73
2022/02/22 00:09:15;;;;;;;23.33;7.13;;;;;;;;;;6218062;28;20233;-71
2022/02/22 00:12:36;;;;;;;20.73;5.50;;;;;;;;;;6215605;28;20233;-72
2022/02/22 00:15:57;;;;;;;17.80;5.83;;;;;;;;;;6213999;28;20638;-72
2022/02/22 00:19:18;;;;;;;14.53;5.27;;;;;;;;;;6211265;28;20312;-71
2022/02/22 00:22:39;;;;;;;33.13;7.23;;;;;;;;;;6216957;28;20225;-71
2022/02/22 00:26:00;;;;;;;18.90;6.30;;;;;;;;;;6211201;28;20602;-72
2022/02/22 00:29:20;;;;;;;27.93;7.13;;;;;;;;;;6211509;28;20237;-71
2022/02/22 00:32:40;;;;;;;16.37;5.73;;;;;;;;;;6213432;28;20259;-72
2022/02/22 00:36:03;;;;;;;17.10;5.77;;;;;;;;;;6208572;28;20319;-72
2022/02/22 00:39:23;;;;;;;19.03;5.83;;;;;;;;;;6215099;28;20536;-72
2022/02/22 00:42:44;;;;;;;23.10;5.83;;;;;;;;;;6217963;28;20315;-71
2022/02/22 00:46:05;;;;;;;17.83;6.30;;;;;;;;;;6201538;28;20241;-71
2022/02/22 00:49:25;;;;;;;15.33;5.73;;;;;;;;;;6214630;28;20241;-71
2022/02/22 00:52:47;;;;;;;15.37;5.00;;;;;;;;;;6213752;28;20229;-72
2022/02/22 00:56:08;;;;;;;18.30;6.00;;;;;;;;;;6202552;28;20619;-72
2022/02/22 00:59:28;;;;;;;20.20;5.70;;;;;;;;;;6213510;28;20253;-72
2022/02/22 01:02:49;;;;;;;18.37;6.57;;;;;;;;;;6216100;28;20613;-71
2022/02/22 01:06:09;;;;;;;20.70;5.47;;;;;;;;;;6185936;28;20233;-71
2022/02/22 01:09:31;;;;;;;12.27;5.27;;;;;;;;;;6216050;28;20855;-72
2022/02/22 01:12:51;;;;;;;28.27;5.83;;;;;;;;;;6213168;28;20233;-71
2022/02/22 01:16:12;;;;;;;15.03;4.70;;;;;;;;;;6214823;28;20233;-70
2022/02/22 01:19:32;;;;;;;22.93;6.00;;;;;;;;;;6215540;28;20684;-72
2022/02/22 01:22:55;;;;;;;26.03;5.53;;;;;;;;;;6208820;28;20679;-71
2022/02/22 01:26:17;;;;;;;18.13;6.67;;;;;;;;;;6214853;28;20225;-71
2022/02/22 01:29:37;;;;;;;10.87;4.63;;;;;;;;;;6213305;28;20225;-71
2022/02/22 01:32:58;;;;;;;13.80;4.67;;;;;;;;;;6214688;28;20261;-71
2022/02/22 01:36:18;;;;;;;16.00;5.87;;;;;;;;;;6211425;28;20232;-71
2022/02/22 01:39:39;;;;;;;19.23;5.23;;;;;;;;;;6199677;28;20606;-72
2022/02/22 01:43:00;;;;;;;19.13;5.80;;;;;;;;;;6214515;28;20229;-71
2022/02/22 01:46:21;;;;;;;16.60;4.83;;;;;;;;;;6206040;28;20238;-71
2022/02/22 01:49:41;;;;;;;15.83;7.97;;;;;;;;;;6202367;28;20638;-71
2022/02/22 01:53:02;;;;;;;12.33;5.37;;;;;;;;;;6206367;28;20225;-72
2022/02/22 01:56:23;;;;;;;18.37;7.70;;;;;;;;;;6211600;28;20233;-70
2022/02/22 01:59:45;;;;;;;19.80;6.73;;;;;;;;;;6208141;28;20225;-71
2022/02/22 02:03:05;;;;;;;20.77;6.60;;;;;;;;;;6206675;28;20229;-71
2022/02/22 02:06:26;;;;;;;24.77;8.43;;;;;;;;;;6210129;28;20260;-70
2022/02/22 02:09:47;;;;;;;25.60;7.67;;;;;;;;;;6201590;28;20225;-72
2022/02/22 02:13:08;;;;;;;21.13;6.47;;;;;;;;;;6213147;28;20364;-71
2022/02/22 02:16:30;;;;;;;17.87;6.60;;;;;;;;;;6215656;28;20233;-70
2022/02/22 02:19:50;;;;;;;19.93;6.03;;;;;;;;;;6214993;28;20229;-71
2022/02/22 02:23:12;;;;;;;26.20;7.97;;;;;;;;;;6188642;28;20567;-71
2022/02/22 02:26:33;;;;;;;22.33;6.40;;;;;;;;;;6218896;28;20245;-71
2022/02/22 02:29:55;;;;;;;21.97;7.00;;;;;;;;;;6217871;28;20229;-70
2022/02/22 02:33:16;;;;;;;21.00;7.17;;;;;;;;;;6209506;28;20248;-71
2022/02/22 02:36:38;;;;;;;23.47;5.80;;;;;;;;;;6214156;28;20236;-71
2022/02/22 02:40:00;;;;;;;19.73;6.27;;;;;;;;;;6213808;28;20255;-71
2022/02/22 02:43:20;;;;;;;21.03;6.73;;;;;;;;;;6210996;28;20237;-71
2022/02/22 02:46:41;;;;;;;22.13;6.80;;;;;;;;;;6214563;28;20261;-71
2022/02/22 02:50:02;;;;;;;17.47;6.30;;;;;;;;;;6218284;28;20237;-71
2022/02/22 02:53:22;;;;;;;22.53;6.37;;;;;;;;;;6207098;28;20233;-71
2022/02/22 02:56:44;;;;;;;20.73;5.83;;;;;;;;;;6214764;28;20233;-71
2022/02/22 03:00:08;;;;;;;17.83;6.60;;;;;;;;;;6215659;28;20229;-71
2022/02/22 03:03:28;;;;;;;16.63;5.57;;;;;;;;;;6216325;28;20237;-71
2022/02/22 03:06:49;;;;;;;29.27;7.07;;;;;;;;;;6217327;28;20573;-71
2022/02/22 03:10:10;;;;;;;18.30;5.83;;;;;;;;;;6211726;28;20229;-72
2022/02/22 03:13:32;;;;;;;17.90;5.77;;;;;;;;;;6213349;28;20237;-71
2022/02/22 03:16:53;;;;;;;19.97;5.60;;;;;;;;;;6211913;28;20633;-71
2022/02/22 03:20:13;;;;;;;14.47;5.43;;;;;;;;;;6214219;28;20234;-71
2022/02/22 03:23:34;;;;;;;21.00;6.10;;;;;;;;;;6217360;28;20702;-70
2022/02/22 03:26:54;;;;;;;15.47;6.57;;;;;;;;;;6215872;28;20241;-71
2022/02/22 03:30:16;;;;;;;22.30;6.80;;;;;;;;;;6212014;28;20233;-71
2022/02/22 03:33:37;;;;;;;22.67;6.03;;;;;;;;;;6215088;28;20261;-71
2022/02/22 03:36:58;;;;;;;24.00;6.50;;;;;;;;;;6218344;28;20260;-71
2022/02/22 03:40:19;;;;;;;18.90;5.83;;;;;;;;;;6214731;28;20229;-71
2022/02/22 03:43:39;;;;;;;20.80;6.50;;;;;;;;;;6213683;28;20946;-71
2022/02/22 03:47:01;;;;;;;13.00;5.33;;;;;;;;;;6213908;28;20539;-70
2022/02/22 03:50:22;;;;;;;17.70;5.50;;;;;;;;;;6217605;28;20233;-71
2022/02/22 03:53:43;;;;;;;30.17;6.40;;;;;;;;;;6212758;28;20519;-71
2022/02/22 03:57:03;;;;;;;17.13;5.90;;;;;;;;;;6210142;28;20229;-70
2022/02/22 04:00:25;;;;;;;21.43;6.53;;;;;;;;;;6213765;28;20595;-71
2022/02/22 04:03:47;;;;;;;17.70;5.83;;;;;;;;;;6216372;28;20320;-70
2022/02/22 04:07:07;;;;;;;15.00;7.07;;;;;;;;;;6216583;28;20757;-70
2022/02/22 04:10:28;;;;;;;22.53;6.13;;;;;;;;;;6213334;28;20233;-70
2022/02/22 04:13:49;;;;;;;20.57;6.17;;;;;;;;;;6214947;28;20225;-70
2022/02/22 04:17:10;;;;;;;14.23;5.00;;;;;;;;;;6208160;28;20229;-71
2022/02/22 04:20:31;;;;;;;19.10;5.93;;;;;;;;;;6215351;28;20252;-71
2022/02/22 04:23:52;;;;;;;18.10;4.97;;;;;;;;;;6213432;28;20328;-71
2022/02/22 04:27:13;;;;;;;16.77;5.80;;;;;;;;;;6199403;28;20225;-70
2022/02/22 04:30:34;;;;;;;34.23;8.00;;;;;;;;;;6216274;28;20252;-71
2022/02/22 04:33:55;;;;;;;24.03;6.77;;;;;;;;;;6216510;28;20591;-71
2022/02/22 04:37:17;;;;;;;22.80;7.23;;;;;;;;;;6203084;28;20316;-71
2022/02/22 04:40:37;;;;;;;18.67;7.33;;;;;;;;;;6216208;28;20237;-71
2022/02/22 04:43:57;;;;;;;25.73;8.07;;;;;;;;;;6209389;28;20241;-70
2022/02/22 04:47:19;;;;;;;15.03;6.17;;;;;;;;;;6209734;28;20233;-71
2022/02/22 04:50:40;;;;;;;14.57;3.67;;;;;;;;;;6214501;28;20229;-71
2022/02/22 04:54:01;;;;;;;13.37;3.97;;;;;;;;;;6214779;28;20232;-70
2022/02/22 04:57:22;;;;;;;11.93;3.53;;;;;;;;;;6209319;28;20237;-70
2022/02/22 05:00:42;;;;;;;9.77;3.20;;;;;;;;;;6212829;28;20229;-71
2022/02/22 05:04:02;;;;;;;9.37;5.00;;;;;;;;;;6215299;28;20225;-71
2022/02/22 05:07:23;;;;;;;12.83;3.70;;;;;;;;;;6210415;28;20229;-70
2022/02/22 05:10:45;;;;;;;13.87;3.87;;;;;;;;;;6211063;28;20229;-70
2022/02/22 05:14:05;;;;;;;11.90;3.80;;;;;;;;;;6208664;28;20234;-71
2022/02/22 05:17:26;;;;;;;13.20;4.03;;;;;;;;;;6215525;28;20233;-71
2022/02/22 05:20:55;;;;;;;9.17;3.43;;;;;;;;;;6214955;28;20232;-71
2022/02/22 05:24:16;;;;;;;12.43;3.63;;;;;;;;;;6212561;28;20228;-71
2022/02/22 05:27:38;;;;;;;12.90;4.23;;;;;;;;;;6212901;28;20229;-71
2022/02/22 05:30:58;;;;;;;13.37;4.37;;;;;;;;;;6214621;28;20237;-72
2022/02/22 05:34:19;;;;;;;12.87;3.93;;;;;;;;;;6209598;28;20311;-71
2022/02/22 05:37:40;;;;;;;12.00;3.40;;;;;;;;;;6215410;28;20252;-70
2022/02/22 05:41:01;;;;;;;14.57;4.37;;;;;;;;;;6204868;28;20225;-71
2022/02/22 05:44:23;;;;;;;13.57;5.60;;;;;;;;;;6207543;28;20237;-70
2022/02/22 05:47:43;;;;;;;20.07;6.93;;;;;;;;;;6212413;28;20253;-71
2022/02/22 05:51:04;;;;;;;15.20;5.43;;;;;;;;;;6218793;28;20592;-69
2022/02/22 05:54:24;;;;;;;15.13;5.20;;;;;;;;;;6213001;28;20410;-71
2022/02/22 05:57:45;;;;;;;14.00;3.63;;;;;;;;;;6214110;28;20233;-70
2022/02/22 06:01:07;;;;;;;18.23;5.57;;;;;;;;;;6212412;28;20324;-71
2022/02/22 06:04:28;;;;;;;12.63;4.70;;;;;;;;;;6219428;28;20245;-71
2022/02/22 06:07:49;;;;;;;16.90;4.50;;;;;;;;;;6217460;28;20229;-71
2022/02/22 06:11:09;;;;;;;16.57;5.37;;;;;;;;;;6212078;28;20229;-71
2022/02/22 06:14:30;;;;;;;16.70;4.73;;;;;;;;;;6219399;28;20770;-71
2022/02/22 06:17:52;;;;;;;15.93;6.43;;;;;;;;;;6208409;28;20599;-71
2022/02/22 06:21:12;;;;;;;14.23;4.43;;;;;;;;;;6218721;28;20233;-72
2022/02/22 06:24:32;;;;;;;15.17;5.60;;;;;;;;;;6218157;28;20229;-70
2022/02/22 06:27:54;;;;;;;20.03;7.00;;;;;;;;;;6218122;28;20286;-71
2022/02/22 06:31:14;;;;;;;17.93;6.13;;;;;;;;;;6217826;28;20469;-70
2022/02/22 06:34:38;;;;;;;19.13;5.70;;;;;;;;;;6214085;28;20225;-71
2022/02/22 06:37:59;;;;;;;27.07;6.67;;;;;;;;;;6211437;28;20268;-71
2022/02/22 06:41:19;;;;;;;16.13;5.60;;;;;;;;;;6217521;28;20240;-72
2022/02/22 06:44:40;;;;;;;16.93;5.43;;;;;;;;;;6217598;28;20221;-72
2022/02/22 06:48:00;;;;;;;21.93;5.80;;;;;;;;;;6217249;28;20324;-72
2022/02/22 06:51:22;;;;;;;18.63;5.97;;;;;;;;;;6212346;28;20272;-71
2022/02/22 06:54:43;;;;;;;15.07;6.33;;;;;;;;;;6211148;28;20312;-71
2022/02/22 06:58:06;;;;;;;19.30;4.70;;;;;;;;;;6212416;28;20331;-71
2022/02/22 07:01:27;;;;;;;25.00;6.37;;;;;;;;;;6216729;28;20870;-71
2022/02/22 07:04:47;;;;;;;17.23;5.50;;;;;;;;;;6217265;28;20237;-71
2022/02/22 07:08:08;;;;;;;22.03;6.23;;;;;;;;;;6217456;28;20915;-71
2022/02/22 07:11:30;;;;;;;25.33;6.20;;;;;;;;;;6217027;28;20229;-72
2022/02/22 07:14:52;;;;;;;18.80;5.47;;;;;;;;;;6215103;28;20225;-71
2022/02/22 07:18:13;;;;;;;18.53;5.30;;;;;;;;;;6210535;28;20233;-71
2022/02/22 07:21:33;;;;;;;17.33;4.87;;;;;;;;;;6217906;28;20233;-70
2022/02/22 07:24:54;;;;;;;15.93;5.47;;;;;;;;;;6217328;28;20233;-71
2022/02/22 07:28:15;;;;;;;19.20;6.70;;;;;;;;;;6214208;28;20467;-71
2022/02/22 07:31:37;;;;;;;24.57;5.27;;;;;;;;;;6213030;28;20237;-70
2022/02/22 07:34:57;;;;;;;17.10;5.13;;;;;;;;;;6213816;28;20233;-71
2022/02/22 07:38:18;;;;;;;14.23;3.90;;;;;;;;;;6214861;28;20251;-71
2022/02/22 07:41:39;;;;;;;20.83;6.10;;;;;;;;;;6216418;28;20225;-71
2022/02/22 07:44:59;;;;;;;16.17;5.50;;;;;;;;;;6215774;28;20556;-71
2022/02/22 07:48:21;;;;;;;17.40;5.60;;;;;;;;;;6217306;28;20319;-71
2022/02/22 07:51:42;;;;;;;17.50;5.70;;;;;;;;;;6213599;28;20305;-71
2022/02/22 07:55:04;;;;;;;16.13;4.70;;;;;;;;;;6215146;28;20289;-71
2022/02/22 07:58:25;;;;;;;19.27;5.43;;;;;;;;;;6210299;28;20248;-70
2022/02/22 08:01:45;;;;;;;16.23;4.17;;;;;;;;;;6211951;28;20234;-71
2022/02/22 08:05:08;;;;;;;17.17;5.40;;;;;;;;;;6225830;28;20225;-71
2022/02/22 08:08:28;;;;;;;15.63;4.97;;;;;;;;;;6208476;28;20627;-72
2022/02/22 08:11:49;;;;;;;12.17;4.90;;;;;;;;;;6212156;28;20331;-71
2022/02/22 08:15:09;;;;;;;20.83;6.50;;;;;;;;;;6214160;28;20225;-71
2022/02/22 08:18:31;;;;;;;15.30;3.93;;;;;;;;;;6216148;28;20236;-71
2022/02/22 08:21:53;;;;;;;20.60;7.27;;;;;;;;;;6212107;28;20235;-71
2022/02/22 08:25:13;;;;;;;24.27;6.20;;;;;;;;;;6208473;28;20233;-70
2022/02/22 08:28:34;;;;;;;18.37;5.70;;;;;;;;;;6216296;28;20316;-71
2022/02/22 08:31:54;;;;;;;12.87;4.13;;;;;;;;;;6214722;28;20335;-71
2022/02/22 08:35:15;;;;;;;13.23;5.17;;;;;;;;;;6210146;28;20237;-71
2022/02/22 08:38:37;;;;;;;15.10;4.10;;;;;;;;;;6216726;28;20229;-72
2022/02/22 08:41:57;;;;;;;15.60;5.47;;;;;;;;;;6207032;28;20229;-71
2022/02/22 08:45:17;;;;;;;16.83;4.70;;;;;;;;;;6212593;28;20225;-71
2022/02/22 08:48:38;;;;;;;16.73;3.80;;;;;;;;;;6216645;28;20646;-70
2022/02/22 08:51:58;;;;;;;25.67;6.33;;;;;;;;;;6215373;28;20233;-72
2022/02/22 08:55:20;;;;;;;14.57;5.10;;;;;;;;;;6209698;28;20228;-70
2022/02/22 08:58:41;;;;;;;20.30;5.73;;;;;;;;;;6215764;28;20240;-71
2022/02/22 09:02:02;;;;;;;11.83;4.13;;;;;;;;;;6215262;28;20264;-71
2022/02/22 09:05:22;;;;;;;17.77;4.93;;;;;;;;;;6202641;28;20234;-71
2022/02/22 09:08:43;;;;;;;14.40;4.97;;;;;;;;;;6212374;28;20567;-70
2022/02/22 09:12:05;;;;;;;21.40;7.27;;;;;;;;;;6215660;28;20252;-70
2022/02/22 09:15:27;;;;;;;16.00;4.53;;;;;;;;;;6207435;28;20229;-72
2022/02/22 09:18:47;;;;;;;11.23;4.40;;;;;;;;;;6215971;28;20232;-70
2022/02/22 09:22:08;;;;;;;12.73;4.30;;;;;;;;;;6215320;28;20523;-71
2022/02/22 09:25:32;;;;;;;12.97;4.63;;;;;;;;;;6220300;28;20233;-71
2022/02/22 09:28:56;;;;;;;20.57;5.67;;;;;;;;;;6216604;28;20232;-71
2022/02/22 09:32:18;;;;;;;15.20;4.87;;;;;;;;;;6216659;28;20324;-71
2022/02/22 09:35:38;;;;;;;22.40;4.57;;;;;;;;;;6215329;28;20228;-71
2022/02/22 09:38:59;;;;;;;11.83;3.83;;;;;;;;;;6219042;28;20300;-71
2022/02/22 09:42:20;;;;;;;18.97;4.50;;;;;;;;;;6214766;28;20323;-71
2022/02/22 09:45:42;;;;;;;19.47;6.30;;;;;;;;;;6215515;28;20233;-71
2022/02/22 09:49:03;;;;;;;16.27;4.50;;;;;;;;;;6219683;28;20316;-71
2022/02/22 09:52:23;;;;;;;14.93;4.60;;;;;;;;;;6219009;28;20642;-71
2022/02/22 09:55:44;;;;;;;20.70;6.07;;;;;;;;;;6215587;28;20229;-72
2022/02/22 09:59:04;;;;;;;19.60;5.47;;;;;;;;;;6216290;28;20426;-70
2022/02/22 10:02:36;;;;;;;19.50;4.63;;;;;;;;;;6218210;28;20642;-71
2022/02/22 10:05:57;;;;;;;15.83;4.07;;;;;;;;;;6217618;28;20253;-70
2022/02/22 10:09:19;;;;;;;14.60;4.57;;;;;;;;;;6213956;28;20266;-71
2022/02/22 10:12:39;;;;;;;15.00;5.30;;;;;;;;;;6219200;28;20750;-70
2022/02/22 10:16:00;;;;;;;16.83;5.87;;;;;;;;;;6214978;28;20240;-69
2022/02/22 10:19:22;;;;;;;16.27;4.53;;;;;;;;;;6218796;28;20349;-72
2022/02/22 10:22:46;;;;;;;19.33;5.37;;;;;;;;;;6214661;28;20229;-71
2022/02/22 10:26:07;;;;;;;20.57;6.20;;;;;;;;;;6216177;28;20674;-71
2022/02/22 10:29:29;;;;;;;20.00;4.87;;;;;;;;;;6217045;28;20225;-71
2022/02/22 10:32:50;;;;;;;18.10;4.97;;;;;;;;;;6217847;28;20224;-70
2022/02/22 10:36:18;;;;;;;15.67;4.93;;;;;;;;;;6210025;28;20607;-71
2022/02/22 10:39:39;;;;;;;15.70;6.17;;;;;;;;;;6215284;28;20527;-71
2022/02/22 10:43:00;;;;;;;17.13;5.00;;;;;;;;;;6216534;28;20225;-71
2022/02/22 10:46:24;;;;;;;16.80;4.10;;;;;;;;;;6218680;28;20237;-71
2022/02/22 10:49:45;;;;;;;16.40;5.77;;;;;;;;;;6218516;28;20233;-71
2022/02/22 10:53:12;;;;;;;22.90;6.47;;;;;;;;;;6216837;28;20271;-71
2022/02/22 10:56:33;;;;;;;23.30;6.47;;;;;;;;;;6207512;28;20237;-71
2022/02/22 10:59:54;;;;;;;18.03;6.20;;;;;;;;;;6216686;28;20743;-72
2022/02/22 11:03:14;;;;;;;18.23;5.20;;;;;;;;;;6216360;28;20329;-70
2022/02/22 11:06:35;;;;;;;16.77;4.73;;;;;;;;;;6219736;28;20547;-70
2022/02/22 11:09:58;;;;;;;19.03;6.30;;;;;;;;;;6217000;28;20319;-71
2022/02/22 11:13:25;;;;;;;17.83;5.43;;;;;;;;;;6216933;28;20245;-71
2022/02/22 11:16:47;;;;;;;18.70;4.30;;;;;;;;;;6205491;28;20229;-70
2022/02/22 11:20:14;;;;;;;18.43;5.70;;;;;;;;;;6211658;28;20232;-71
2022/02/22 11:23:34;;;;;;;16.73;4.90;;;;;;;;;;6216876;28;20256;-71
2022/02/22 11:26:59;;;;;;;23.90;5.97;;;;;;;;;;6215695;28;20225;-71
2022/02/22 11:30:27;;;;;;;18.13;5.43;;;;;;;;;;6211237;28;20265;-71
2022/02/22 11:33:49;;;;;;;18.10;6.13;;;;;;;;;;6213136;28;20236;-71
2022/02/22 11:37:11;;;;;;;17.17;6.13;;;;;;;;;;6207257;28;20225;-71
2022/02/22 11:40:33;;;;;;;18.13;5.40;;;;;;;;;;6216765;28;20233;-70
2022/02/22 11:43:56;;;;;;;16.10;4.27;;;;;;;;;;6215224;28;20328;-71
2022/02/22 11:47:17;;;;;;;14.90;5.00;;;;;;;;;;6208865;28;20229;-71
2022/02/22 11:50:39;;;;;;;13.47;4.17;;;;;;;;;;6216525;28;20225;-70
2022/02/22 11:54:09;;;;;;;17.57;5.97;;;;;;;;;;6214331;28;20523;-70
2022/02/22 11:57:30;;;;;;;13.17;4.60;;;;;;;;;;6205085;28;20221;-70
2022/02/22 12:00:54;;;;;;;21.43;4.73;;;;;;;;;;6214376;28;20225;-71
2022/02/22 12:04:18;;;;;;;12.23;4.40;;;;;;;;;;6203214;28;20225;-71
2022/02/22 12:07:39;;;;;;;14.43;4.83;;;;;;;;;;6209655;28;20252;-72
2022/02/22 12:11:01;;;;;;;14.77;4.50;;;;;;;;;;6213538;28;20218;-70
2022/02/22 12:14:21;;;;;;;20.17;5.53;;;;;;;;;;6211244;28;20253;-71
2022/02/22 12:17:44;;;;;;;16.07;5.17;;;;;;;;;;6209315;28;20312;-71
2022/02/22 12:21:04;;;;;;;17.00;6.37;;;;;;;;;;6210175;28;20233;-71
2022/02/22 12:24:25;;;;;;;11.47;4.60;;;;;;;;;;6209910;28;20221;-71
2022/02/22 12:27:46;;;;;;;12.87;4.83;;;;;;;;;;6215270;28;20233;-71
2022/02/22 12:31:07;;;;;;;23.30;6.23;;;;;;;;;;6209114;28;20324;-71
2022/02/22 12:34:30;;;;;;;15.57;4.47;;;;;;;;;;6213152;28;20319;-70
2022/02/22 12:37:51;;;;;;;21.03;5.60;;;;;;;;;;6214180;28;20232;-71
2022/02/22 12:41:12;;;;;;;14.03;4.20;;;;;;;;;;6210934;28;20256;-71
2022/02/22 12:44:32;;;;;;;12.53;4.93;;;;;;;;;;6216295;28;20252;-72
2022/02/22 12:47:54;;;;;;;12.80;4.63;;;;;;;;;;6215104;28;20229;-71
2022/02/22 12:51:24;;;;;;;16.83;4.93;;;;;;;;;;6208648;28;20241;-72
2022/02/22 12:54:44;;;;;;;14.63;4.40;;;;;;;;;;6212782;28;20225;-71
2022/02/22 12:58:05;;;;;;;15.77;4.67;;;;;;;;;;6207660;28;20913;-70
2022/02/22 13:01:27;;;;;;;18.90;6.30;;;;;;;;;;6215429;28;20225;-70
2022/02/22 13:04:47;;;;;;;11.30;4.60;;;;;;;;;;6215320;28;20232;-71
2022/02/22 13:08:10;;;;;;;12.00;3.43;;;;;;;;;;6214456;28;20239;-71
2022/02/22 13:11:33;;;;;;;15.07;5.57;;;;;;;;;;6214039;28;20253;-71
2022/02/22 13:14:54;;;;;;;11.50;4.60;;;;;;;;;;6214107;28;20510;-71
2022/02/22 13:18:16;;;;;;;17.20;7.17;;;;;;;;;;6218332;28;20225;-71
2022/02/22 13:21:41;;;;;;;13.60;5.63;;;;;;;;;;6215609;28;20308;-72
2022/02/22 13:25:04;;;;;;;20.70;5.87;;;;;;;;;;6206941;28;20229;-70
2022/02/22 13:28:30;;;;;;;12.43;3.80;;;;;;;;;;6209991;28;20307;-71
2022/02/22 13:32:01;;;;;;;15.27;5.60;;;;;;;;;;6214631;28;20238;-71
2022/02/22 13:35:23;;;;;;;15.90;5.37;;;;;;;;;;6211634;28;20236;-71
2022/02/22 13:38:55;;;;;;;14.80;5.17;;;;;;;;;;6214479;28;20719;-71
2022/02/22 13:42:19;;;;;;;12.30;4.40;;;;;;;;;;6209136;28;20221;-72
2022/02/22 13:45:39;;;;;;;8.40;3.47;;;;;;;;;;6214389;28;20596;-71
2022/02/22 13:49:04;;;;;;;12.33;3.97;;;;;;;;;;6213301;28;20602;-70
2022/02/22 13:52:25;;;;;;;13.53;3.80;;;;;;;;;;6211159;28;20225;-71
2022/02/22 13:55:46;;;;;;;10.90;4.50;;;;;;;;;;6214049;28;20237;-71
2022/02/22 13:59:10;;;;;;;19.43;4.50;;;;;;;;;;6210202;28;20260;-71
2022/02/22 14:02:31;;;;;;;14.10;4.23;;;;;;;;;;6212115;28;20229;-72
2022/02/22 14:05:52;;;;;;;18.10;4.93;;;;;;;;;;6205464;28;20241;-73
2022/02/22 14:09:13;;;;;;;22.77;6.23;;;;;;;;;;6212256;28;20237;-71
2022/02/22 14:12:34;;;;;;;15.67;4.80;;;;;;;;;;6219882;28;20253;-72
2022/02/22 14:15:55;;;;;;;19.50;6.40;;;;;;;;;;6218497;28;20229;-72
2022/02/22 14:19:16;;;;;;;16.77;4.23;;;;;;;;;;6218009;28;20324;-71
2022/02/22 14:22:36;;;;;;;15.93;4.73;;;;;;;;;;6217337;28;20237;-72
2022/02/22 14:25:57;;;;;;;15.20;4.70;;;;;;;;;;6215101;28;20249;-73
2022/02/22 14:29:18;;;;;;;14.07;4.60;;;;;;;;;;6217724;28;20781;-72
2022/02/22 14:32:39;;;;;;;20.43;6.37;;;;;;;;;;6214966;28;20250;-72
2022/02/22 14:36:00;;;;;;;14.83;4.23;;;;;;;;;;6216185;28;20614;-71
2022/02/22 14:39:20;;;;;;;17.07;4.53;;;;;;;;;;6215071;28;20241;-72
2022/02/22 14:42:42;;;;;;;15.63;4.17;;;;;;;;;;6214358;28;20312;-72
2022/02/22 14:46:04;;;;;;;13.50;4.83;;;;;;;;;;6217596;28;20237;-72
2022/02/22 14:49:26;;;;;;;11.80;4.90;;;;;;;;;;6218094;28;20229;-72
2022/02/22 14:52:47;;;;;;;15.37;4.43;;;;;;;;;;6216653;28;20225;-72
2022/02/22 14:56:08;;;;;;;12.80;4.53;;;;;;;;;;6217723;28;20257;-72
2022/02/22 14:59:28;;;;;;;12.77;5.00;;;;;;;;;;6216184;28;20228;-72
2022/02/22 15:02:49;;;;;;;17.73;6.77;;;;;;;;;;6217168;28;20625;-72
2022/02/22 15:06:11;;;;;;;12.67;5.67;;;;;;;;;;6217222;28;20525;-72
2022/02/22 15:09:31;;;;;;;14.17;5.83;;;;;;;;;;6212232;28;20237;-72
2022/02/22 15:12:52;;;;;;;9.23;3.70;;;;;;;;;;6206788;28;20234;-73
2022/02/22 15:16:13;;;;;;;13.37;4.67;;;;;;;;;;6215794;28;20237;-71
2022/02/22 15:19:33;;;;;;;12.23;4.60;;;;;;;;;;6213674;28;20904;-72
2022/02/22 15:22:56;;;;;;;17.67;6.10;;;;;;;;;;6217287;28;20233;-72
2022/02/22 15:26:16;;;;;;;14.47;5.00;;;;;;;;;;6215353;28;20671;-72
2022/02/22 15:29:36;;;;;;;14.80;4.93;;;;;;;;;;6216143;28;20245;-72
2022/02/22 15:32:57;;;;;;;12.90;4.50;;;;;;;;;;6215608;28;20224;-72
2022/02/22 15:36:18;;;;;;;8.83;4.17;;;;;;;;;;6214424;28;20658;-72
2022/02/22 15:39:41;;;;;;;13.97;4.43;;;;;;;;;;6215295;28;20285;-72
2022/02/22 15:43:02;;;;;;;15.33;4.67;;;;;;;;;;6214545;28;20586;-72
2022/02/22 15:46:23;;;;;;;18.73;5.97;;;;;;;;;;6213428;28;20229;-71
2022/02/22 15:49:43;;;;;;;11.67;4.90;;;;;;;;;;6214822;28;20479;-72
2022/02/22 15:53:04;;;;;;;17.07;6.77;;;;;;;;;;6216240;28;20225;-72
2022/02/22 15:56:26;;;;;;;14.33;5.27;;;;;;;;;;6213979;28;20249;-73
2022/02/22 15:59:46;;;;;;;11.47;4.67;;;;;;;;;;6210134;28;20234;-72
2022/02/22 16:03:07;;;;;;;6.50;5.23;;;;;;;;;;6210534;28;20236;-72
2022/02/22 16:06:28;;;;;;;11.20;4.63;;;;;;;;;;6215230;28;20236;-72
2022/02/22 16:09:48;;;;;;;14.97;5.00;;;;;;;;;;6215537;28;20630;-72
2022/02/22 16:13:10;;;;;;;11.27;3.43;;;;;;;;;;6215800;28;20336;-71
2022/02/22 16:16:31;;;;;;;9.97;4.10;;;;;;;;;;6216270;28;20225;-73
2022/02/22 16:19:52;;;;;;;11.50;4.87;;;;;;;;;;6205878;28;20221;-73
2022/02/22 16:23:13;;;;;;;7.83;3.90;;;;;;;;;;6211903;28;20248;-72
2022/02/22 16:26:34;;;;;;;12.47;5.87;;;;;;;;;;6208323;28;20259;-72
2022/02/22 16:29:55;;;;;;;8.07;4.40;;;;;;;;;;6209227;28;20217;-72
2022/02/22 16:33:17;;;;;;;14.73;5.20;;;;;;;;;;6207847;28;20237;-72
2022/02/22 16:36:37;;;;;;;11.87;6.47;;;;;;;;;;6216441;28;20678;-72
2022/02/22 16:39:58;;;;;;;7.23;5.07;;;;;;;;;;6216220;28;20287;-72
2022/02/22 16:43:18;;;;;;;7.60;5.77;;;;;;;;;;6208837;28;20229;-72
2022/02/22 16:46:42;;;;;;;8.77;6.77;;;;;;;;;;6216324;28;20226;-72
2022/02/22 16:50:03;;;;;;;11.73;7.93;;;;;;;;;;6214323;28;20237;-73
2022/02/22 16:53:23;;;;;;;9.97;7.13;;;;;;;;;;6209965;28;20582;-71
2022/02/22 16:56:45;;;;;;;9.77;6.93;;;;;;;;;;6215534;28;20225;-72
2022/02/22 17:00:06;;;;;;;13.03;8.83;;;;;;;;;;6203290;28;20595;-73
2022/02/22 17:03:28;;;;;;;11.70;8.53;;;;;;;;;;6209045;28;20229;-73
2022/02/22 17:06:48;;;;;;;11.30;7.60;;;;;;;;;;6211816;28;20233;-72
2022/02/22 17:10:10;;;;;;;12.33;8.77;;;;;;;;;;6206581;28;20260;-72
2022/02/22 17:13:30;;;;;;;11.67;9.03;;;;;;;;;;6213304;28;20225;-72
2022/02/22 17:16:51;;;;;;;10.37;8.87;;;;;;;;;;6216260;28;20465;-73
2022/02/22 17:20:14;;;;;;;10.07;8.97;;;;;;;;;;6214480;28;20233;-73
2022/02/22 17:23:35;;;;;;;14.03;9.40;;;;;;;;;;6212841;28;20606;-72
2022/02/22 17:26:55;;;;;;;12.03;10.53;;;;;;;;;;6205017;28;20229;-72
2022/02/22 17:30:16;;;;;;;10.47;9.40;;;;;;;;;;6202923;28;20261;-71
2022/02/22 17:33:36;;;;;;;12.33;9.40;;;;;;;;;;6212375;28;20319;-72
2022/02/22 17:37:00;;;;;;;11.60;10.37;;;;;;;;;;6215774;28;20316;-74
2022/02/22 17:40:20;;;;;;;11.00;10.00;;;;;;;;;;6204778;28;20233;-74
2022/02/22 17:43:41;;;;;;;13.17;11.80;;;;;;;;;;6214644;28;20237;-73
2022/02/22 17:47:01;;;;;;;11.87;8.80;;;;;;;;;;6217255;28;20229;-73
2022/02/22 17:50:22;;;;;;;8.77;7.97;;;;;;;;;;6219876;28;20232;-73
2022/02/22 17:53:44;;;;;;;9.70;8.53;;;;;;;;;;6214565;28;20260;-74
2022/02/22 17:57:05;;;;;;;8.37;7.60;;;;;;;;;;6212691;28;20229;-74
2022/02/22 18:00:26;;;;;;;10.30;9.27;;;;;;;;;;6213568;28;20230;-75
2022/02/22 18:03:46;;;;;;;13.10;10.63;;;;;;;;;;6214388;28;20233;-74
2022/02/22 18:07:07;;;;;;;11.43;10.40;;;;;;;;;;6217076;28;20312;-74
2022/02/22 18:10:29;;;;;;;11.60;10.27;;;;;;;;;;6209632;28;20237;-73
2022/02/22 18:13:50;;;;;;;12.63;11.27;;;;;;;;;;6208176;28;20872;-72
2022/02/22 18:17:13;;;;;;;15.43;13.13;;;;;;;;;;6214747;28;20614;-73
2022/02/22 18:20:34;;;;;;;14.33;12.83;;;;;;;;;;6209990;28;20603;-73
2022/02/22 18:23:54;;;;;;;13.90;11.93;;;;;;;;;;6214686;28;20225;-73
2022/02/22 18:27:16;;;;;;;15.27;13.57;;;;;;;;;;6211288;28;20244;-73
2022/02/22 18:30:36;;;;;;;16.90;13.13;;;;;;;;;;6218812;28;20356;-72
2022/02/22 18:33:57;;;;;;;9.70;8.80;;;;;;;;;;6216776;28;20233;-73
2022/02/22 18:37:18;;;;;;;12.73;11.33;;;;;;;;;;6207487;28;20504;-73
2022/02/22 18:40:39;;;;;;;12.80;11.50;;;;;;;;;;6217926;28;20229;-73
2022/02/22 18:44:01;;;;;;;14.77;12.97;;;;;;;;;;6209471;28;20234;-72
2022/02/22 18:47:22;;;;;;;11.83;9.50;;;;;;;;;;6217397;28;20237;-72
2022/02/22 18:50:42;;;;;;;13.33;12.10;;;;;;;;;;6209450;28;20233;-73
2022/02/22 18:54:03;;;;;;;15.77;11.47;;;;;;;;;;6213890;28;20225;-73
2022/02/22 18:57:24;;;;;;;19.93;13.53;;;;;;;;;;6217503;28;20781;-73
2022/02/22 19:00:48;;;;;;;18.43;15.53;;;;;;;;;;6218192;28;20229;-72
2022/02/22 19:04:08;;;;;;;18.37;15.07;;;;;;;;;;6213342;28;20607;-72
2022/02/22 19:07:29;;;;;;;16.43;13.97;;;;;;;;;;6218502;28;20229;-71
2022/02/22 19:10:50;;;;;;;14.10;12.67;;;;;;;;;;6216478;28;20513;-71
2022/02/22 19:14:10;;;;;;;14.43;12.87;;;;;;;;;;6201631;28;20233;-71
2022/02/22 19:17:32;;;;;;;9.57;8.53;;;;;;;;;;6217250;28;20612;-74
2022/02/22 19:20:53;;;;;;;14.07;9.83;;;;;;;;;;6229485;28;20229;-73
2022/02/22 19:24:13;;;;;;;15.07;4.60;;;;;;;;;;6211261;28;20237;-71
2022/02/22 19:27:35;;;;;;;15.90;6.67;;;;;;;;;;6213528;28;20319;-72
2022/02/22 19:30:56;;;;;;;20.07;6.23;;;;;;;;;;6208742;28;20327;-72
2022/02/22 19:34:18;;;;;;;19.37;6.57;;;;;;;;;;6201837;28;20316;-71
2022/02/22 19:37:38;;;;;;;15.73;6.47;;;;;;;;;;6214330;28;20674;-72
2022/02/22 19:40:59;;;;;;;15.63;5.20;;;;;;;;;;6216315;28;20257;-72
2022/02/22 19:44:20;;;;;;;18.87;7.27;;;;;;;;;;6213885;28;20237;-72
2022/02/22 19:47:40;;;;;;;16.17;5.40;;;;;;;;;;6217203;28;20233;-71
2022/02/22 19:51:02;;;;;;;12.23;5.03;;;;;;;;;;6216758;28;20224;-72